This is the latest recevied weather packets stored in our database for station/object DO3HUM-5. If no packets are shown the sender has not sent any weather packets the latest 10 day(s).
| Time | Temp. | Humidity | Pressure | Rain* | Wind** | Luminosity | Snow |
|---|---|---|---|---|---|---|---|
| 1777826755 | 25.56° C | 38% | 1017.5 hPa | 0 mm | - | - | - |
| 1777826152 | 26.11° C | 37% | 1017.5 hPa | 0 mm | - | - | - |
| 1777825550 | 26.11° C | 37% | 1017.5 hPa | 0 mm | - | - | - |
| 1777824946 | 25.56° C | 39% | 1017.6 hPa | 0 mm | - | - | - |
| 1777824343 | 25.56° C | 37% | 1017.6 hPa | 0 mm | - | - | - |
| 1777823740 | 26.67° C | 36% | 1017.6 hPa | 0 mm | - | - | - |
| 1777823137 | 27.22° C | 35% | 1017.5 hPa | 0 mm | - | - | - |
| 1777822534 | 27.22° C | 35% | 1017.5 hPa | 0 mm | - | - | - |
| 1777821931 | 27.22° C | 37% | 1017.6 hPa | 0 mm | - | - | - |
| 1777821329 | 27.22° C | 36% | 1017.6 hPa | 0 mm | - | - | - |
| 1777820727 | 27.22° C | 36% | 1017.8 hPa | 0 mm | - | - | - |
| 1777820123 | 27.78° C | 35% | 1017.8 hPa | 0 mm | - | - | - |
| 1777819520 | 27.78° C | 35% | 1017.9 hPa | 0 mm | - | - | - |
| 1777818917 | 27.22° C | 34% | 1018.1 hPa | 0 mm | - | - | - |
| 1777818376 | 27.22° C | 34% | 1018.2 hPa | 0 mm | - | - | - |
| 1777817772 | 27.78° C | 36% | 1018.3 hPa | 0 mm | - | - | - |
| 1777817170 | 27.22° C | 37% | 1018.4 hPa | 0 mm | - | - | - |
| 1777816567 | 27.78° C | 34% | 1018.6 hPa | 0 mm | - | - | - |
| 1777815963 | 27.78° C | 34% | 1018.7 hPa | 0 mm | - | - | - |
| 1777815361 | 27.78° C | 33% | 1018.9 hPa | 0 mm | - | - | - |
| 1777814758 | 27.78° C | 33% | 1019 hPa | 0 mm | - | - | - |
| 1777814155 | 27.78° C | 35% | 1019.1 hPa | 0 mm | - | - | - |
| 1777813553 | 27.22° C | 37% | 1019.4 hPa | 0 mm | - | - | - |
| 1777812949 | 27.78° C | 34% | 1019.3 hPa | 0 mm | - | - | - |
| 1777812346 | 28.33° C | 33% | 1019.4 hPa | 0 mm | - | - | - |
* Rain latest hour (hover to see other rain measurements)
** Current wind speed in m/s (hover to see current wind gust speed)